createdAt,value
2019-04-26T00:00:33.044Z,28.40
2019-04-26T00:03:04.159Z,28.80
2019-04-26T00:05:36.044Z,28.70
2019-04-26T00:08:05.563Z,29.30
2019-04-26T00:10:42.376Z,29.40
2019-04-26T00:13:33.869Z,29.30
2019-04-26T00:16:28.380Z,29.00
2019-04-26T00:18:58.219Z,28.90
2019-04-26T00:21:28.176Z,28.70
2019-04-26T00:23:58.027Z,29.00
2019-04-26T00:26:27.979Z,29.00
2019-04-26T00:28:58.133Z,28.90
2019-04-26T00:31:27.827Z,29.10
2019-04-26T00:33:57.358Z,28.80
2019-04-26T00:36:26.970Z,28.70
2019-04-26T00:38:56.531Z,29.00
2019-04-26T00:41:26.721Z,28.90
2019-04-26T00:43:57.206Z,29.60
2019-04-26T00:46:29.346Z,29.10
2019-04-26T00:49:02.340Z,29.40
2019-04-26T00:51:32.775Z,29.50
2019-04-26T00:54:02.560Z,30.20
2019-04-26T00:56:32.931Z,30.50
2019-04-26T00:59:03.034Z,30.60
2019-04-26T01:01:35.829Z,30.80
2019-04-26T01:04:05.585Z,31.50
2019-04-26T01:06:37.136Z,31.90
2019-04-26T01:09:07.452Z,31.80
2019-04-26T01:11:36.991Z,32.60
2019-04-26T01:14:06.685Z,32.60
2019-04-26T01:16:36.268Z,32.90
2019-04-26T01:19:09.804Z,32.50
2019-04-26T01:21:43.149Z,33.20
2019-04-26T01:24:14.563Z,33.30
2019-04-26T01:26:45.073Z,33.40
2019-04-26T01:29:19.583Z,32.80
2019-04-26T01:31:55.262Z,33.80
2019-04-26T01:34:26.172Z,34.00
2019-04-26T01:36:57.450Z,34.00
2019-04-26T01:39:27.994Z,34.10
2019-04-26T01:42:16.734Z,34.80
2019-04-26T01:45:03.275Z,35.00
2019-04-26T01:47:33.736Z,36.50
2019-04-26T01:50:03.338Z,37.10
2019-04-26T01:52:32.901Z,37.50
2019-04-26T01:55:02.784Z,36.50
2019-04-26T01:57:33.171Z,38.00
2019-04-26T02:00:16.268Z,36.90
2019-04-26T02:02:54.036Z,38.00
2019-04-26T02:05:25.890Z,37.20
2019-04-26T02:07:56.077Z,38.10
2019-04-26T02:10:26.676Z,37.80
2019-04-26T02:12:57.072Z,37.90
2019-04-26T02:15:31.256Z,38.20
2019-04-26T02:18:01.344Z,39.50
2019-04-26T02:20:55.492Z,39.50
2019-04-26T02:23:34.350Z,40.00
2019-04-26T02:26:21.440Z,39.80
2019-04-26T02:28:51.525Z,40.90
2019-04-26T02:31:21.847Z,42.20
2019-04-26T02:33:52.409Z,42.90
2019-04-26T02:36:23.742Z,43.20
2019-04-26T02:38:55.768Z,42.70
2019-04-26T02:41:27.471Z,43.30
2019-04-26T02:44:00.336Z,43.50
2019-04-26T02:46:43.828Z,43.90
2019-04-26T02:49:34.554Z,44.50
2019-04-26T02:52:29.813Z,45.10
2019-04-26T02:55:06.850Z,44.70
2019-04-26T02:57:49.564Z,45.50
2019-04-26T03:00:20.785Z,46.20
2019-04-26T03:02:55.942Z,46.50
2019-04-26T03:05:28.474Z,47.00
2019-04-26T03:08:04.104Z,47.10
2019-04-26T03:10:51.946Z,48.30
2019-04-26T03:13:49.839Z,48.90
2019-04-26T03:16:53.100Z,48.60
2019-04-26T03:19:40.141Z,49.40
2019-04-26T03:22:50.377Z,49.50
2019-04-26T03:25:25.733Z,50.50
2019-04-26T03:28:17.391Z,50.90
2019-04-26T03:30:57.777Z,49.90
2019-04-26T03:34:14.999Z,49.90
2019-04-26T03:37:32.579Z,50.80
2019-04-26T03:40:38.974Z,51.00
2019-04-26T03:43:53.240Z,50.30
2019-04-26T03:46:34.856Z,50.70
2019-04-26T03:49:36.100Z,50.30
2019-04-26T03:52:29.643Z,50.50
2019-04-26T03:55:03.338Z,49.60
2019-04-26T03:57:47.297Z,50.10
2019-04-26T04:00:47.286Z,50.40
2019-04-26T04:03:53.061Z,50.10
2019-04-26T04:06:28.703Z,50.50
2019-04-26T04:09:18.091Z,50.60
2019-04-26T04:12:10.827Z,51.10
2019-04-26T04:14:44.373Z,50.70
2019-04-26T04:17:38.784Z,50.50
2019-04-26T04:20:34.651Z,50.60
2019-04-26T04:23:12.618Z,50.80
2019-04-26T04:25:47.276Z,50.50
2019-04-26T04:28:44.493Z,50.60
2019-04-26T04:31:23.973Z,51.00
2019-04-26T04:34:04.886Z,50.20
2019-04-26T04:36:42.350Z,49.90
2019-04-26T04:39:23.237Z,49.40
2019-04-26T04:42:31.918Z,49.40
2019-04-26T04:45:23.602Z,49.70
2019-04-26T04:48:20.867Z,49.70
2019-04-26T04:51:06.918Z,49.80
2019-04-26T04:53:49.605Z,49.50
2019-04-26T04:57:05.014Z,49.80
2019-04-26T04:59:46.126Z,50.00
2019-04-26T05:02:32.952Z,49.70
2019-04-26T05:05:28.315Z,49.00
2019-04-26T05:08:19.484Z,47.40
2019-04-26T05:10:58.438Z,48.60
2019-04-26T05:13:45.196Z,48.10
2019-04-26T05:16:38.578Z,47.20
2019-04-26T05:19:37.586Z,46.50
2019-04-26T05:22:40.579Z,45.90
2019-04-26T05:25:55.871Z,45.50
2019-04-26T05:28:44.044Z,45.60
2019-04-26T05:31:33.660Z,45.70
2019-04-26T05:34:27.007Z,45.10
2019-04-26T05:37:22.795Z,45.30
2019-04-26T05:40:14.111Z,45.10
2019-04-26T05:43:40.171Z,44.80
2019-04-26T05:46:53.563Z,45.90
2019-04-26T05:50:33.466Z,46.80
2019-04-26T05:53:51.368Z,47.90
2019-04-26T05:56:37.932Z,48.40
2019-04-26T05:59:36.475Z,50.20
2019-04-26T06:03:01.284Z,50.70
2019-04-26T06:06:07.143Z,51.20
2019-04-26T06:09:32.091Z,54.20
2019-04-26T06:12:28.113Z,54.80
2019-04-26T06:15:43.567Z,55.50
2019-04-26T06:18:51.686Z,55.40
2019-04-26T06:21:47.672Z,54.80
2019-04-26T06:24:36.589Z,54.60
2019-04-26T06:27:49.754Z,55.10
2019-04-26T06:30:48.536Z,54.80
2019-04-26T06:33:55.177Z,54.20
2019-04-26T06:36:34.128Z,53.60
2019-04-26T06:39:33.079Z,53.00
2019-04-26T06:42:54.765Z,53.90
2019-04-26T06:46:42.630Z,53.60
2019-04-26T06:49:42.313Z,52.60
2019-04-26T06:52:16.272Z,52.10
2019-04-26T06:55:06.782Z,51.60
2019-04-26T06:58:14.101Z,50.60
2019-04-26T07:01:17.693Z,49.50
2019-04-26T07:04:26.696Z,50.00
2019-04-26T07:07:30.302Z,50.40
2019-04-26T07:10:12.192Z,51.10
2019-04-26T07:12:52.623Z,50.70
2019-04-26T07:16:20.707Z,49.40
2019-04-26T07:19:17.860Z,49.40
2019-04-26T07:22:35.118Z,50.30
2019-04-26T07:25:39.384Z,51.20
2019-04-26T07:28:48.715Z,52.70
2019-04-26T07:31:30.641Z,53.10
2019-04-26T07:34:30.253Z,53.80
2019-04-26T07:37:36.412Z,53.00
2019-04-26T07:40:41.998Z,53.10
2019-04-26T07:43:28.545Z,53.10
2019-04-26T07:46:34.930Z,53.00
2019-04-26T07:49:45.802Z,54.20
2019-04-26T07:52:34.759Z,55.50
2019-04-26T07:55:37.959Z,61.00
2019-04-26T07:59:04.183Z,62.80
2019-04-26T08:02:17.861Z,67.00
2019-04-26T08:04:53.231Z,69.70
2019-04-26T08:07:25.751Z,71.40
2019-04-26T08:10:12.272Z,73.80
2019-04-26T08:12:45.043Z,76.10
2019-04-26T08:15:53.249Z,76.70
2019-04-26T08:18:30.191Z,76.40
2019-04-26T08:21:20.519Z,77.00
2019-04-26T08:24:03.818Z,78.20
2019-04-26T08:26:36.454Z,78.50
2019-04-26T08:29:08.440Z,79.30
2019-04-26T08:31:40.825Z,78.70
2019-04-26T08:34:16.674Z,78.40
2019-04-26T08:37:01.785Z,76.10
2019-04-26T08:39:44.534Z,76.60
2019-04-26T08:42:05.191Z,77.40
2019-04-26T08:44:56.775Z,76.40
2019-04-26T08:47:55.385Z,76.40
2019-04-26T08:50:42.182Z,74.40
2019-04-26T08:53:11.192Z,75.40
2019-04-26T08:55:43.104Z,75.00
2019-04-26T08:58:15.475Z,75.00
2019-04-26T09:01:10.709Z,75.70
2019-04-26T09:03:51.083Z,76.40
2019-04-26T09:06:42.847Z,79.30
2019-04-26T09:09:18.231Z,80.10
2019-04-26T09:11:59.496Z,81.50
2019-04-26T09:14:27.113Z,80.50
2019-04-26T09:16:58.701Z,79.60
2019-04-26T09:19:30.586Z,79.80
2019-04-26T09:22:12.874Z,81.30
2019-04-26T09:24:55.145Z,80.80
2019-04-26T09:27:40.898Z,79.50
2019-04-26T09:30:34.296Z,77.80
2019-04-26T09:33:14.407Z,77.10
2019-04-26T09:35:44.505Z,78.50
2019-04-26T09:38:14.949Z,79.20
2019-04-26T09:40:44.555Z,78.80
2019-04-26T09:43:20.812Z,77.50
2019-04-26T09:46:10.289Z,78.30
2019-04-26T09:48:49.484Z,79.20
2019-04-26T09:51:19.011Z,78.90
2019-04-26T09:53:48.618Z,77.70
2019-04-26T09:56:18.216Z,79.10
2019-04-26T09:58:47.837Z,81.10
2019-04-26T10:01:19.731Z,82.00
2019-04-26T10:03:49.035Z,82.90
2019-04-26T10:06:18.656Z,85.00
2019-04-26T10:08:48.201Z,85.20
2019-04-26T10:11:19.846Z,85.50
2019-04-26T10:13:58.512Z,85.80
2019-04-26T10:17:02.280Z,87.00
2019-04-26T10:19:45.113Z,89.40
2019-04-26T10:22:14.690Z,88.90
2019-04-26T10:24:44.356Z,88.90
2019-04-26T10:27:14.930Z,85.00
2019-04-26T10:29:44.536Z,83.80
2019-04-26T10:32:14.291Z,84.30
2019-04-26T10:34:47.343Z,83.30
2019-04-26T10:37:15.244Z,83.10
2019-04-26T10:39:44.814Z,84.20
2019-04-26T10:42:14.520Z,83.90
2019-04-26T10:44:44.674Z,82.50
2019-04-26T10:47:15.736Z,81.40
2019-04-26T10:49:49.158Z,83.10
2019-04-26T10:52:49.537Z,80.20
2019-04-26T10:55:50.272Z,79.20
2019-04-26T10:58:31.856Z,79.00
2019-04-26T11:01:02.955Z,79.40
2019-04-26T11:03:34.931Z,78.30
2019-04-26T11:06:04.037Z,78.40
2019-04-26T11:08:34.010Z,77.30
2019-04-26T11:11:03.773Z,76.20
2019-04-26T11:13:33.455Z,73.40
2019-04-26T11:16:06.987Z,73.80
2019-04-26T11:18:34.517Z,74.80
2019-04-26T11:21:04.121Z,74.60
2019-04-26T11:23:33.840Z,74.60
2019-04-26T11:26:03.401Z,73.90
2019-04-26T11:28:33.037Z,73.30
2019-04-26T11:31:02.703Z,75.40
2019-04-26T11:33:44.266Z,74.00
2019-04-26T11:36:07.288Z,71.70
2019-04-26T11:38:35.475Z,75.40
2019-04-26T11:41:06.598Z,76.50
2019-04-26T11:43:36.440Z,76.70
2019-04-26T11:46:06.228Z,76.90
2019-04-26T11:48:35.853Z,75.10
2019-04-26T11:51:05.504Z,74.20
2019-04-26T11:53:35.157Z,72.50
2019-04-26T11:56:05.804Z,70.90
2019-04-26T11:58:35.522Z,72.50
2019-04-26T12:01:06.789Z,74.10
2019-04-26T12:03:36.651Z,74.10
2019-04-26T12:06:12.101Z,74.30
2019-04-26T12:08:50.324Z,71.90
2019-04-26T12:11:26.131Z,71.90
2019-04-26T12:13:51.505Z,70.40
2019-04-26T12:16:21.220Z,69.10
2019-04-26T12:18:50.897Z,70.10
2019-04-26T12:21:20.790Z,69.20
2019-04-26T12:23:51.367Z,68.20
2019-04-26T12:26:23.086Z,69.70
2019-04-26T12:28:52.921Z,68.80
2019-04-26T12:31:22.552Z,67.70
2019-04-26T12:33:52.375Z,62.80
2019-04-26T12:36:22.254Z,63.00
2019-04-26T12:38:51.816Z,63.20
2019-04-26T12:41:39.254Z,61.70
2019-04-26T12:43:54.488Z,60.60
2019-04-26T12:46:36.647Z,59.50
2019-04-26T12:49:06.247Z,60.20
2019-04-26T12:51:38.189Z,61.30
2019-04-26T12:54:08.206Z,61.20
2019-04-26T12:56:38.801Z,62.20
2019-04-26T12:59:08.640Z,63.30
2019-04-26T13:01:38.240Z,63.70
2019-04-26T13:04:07.963Z,64.00
2019-04-26T13:06:43.167Z,63.80
2019-04-26T13:09:15.264Z,64.10
2019-04-26T13:12:03.849Z,64.60
2019-04-26T13:14:58.406Z,66.00
2019-04-26T13:17:36.022Z,66.00
2019-04-26T13:20:06.906Z,64.80
2019-04-26T13:22:45.919Z,65.10
2019-04-26T13:25:15.301Z,64.00
2019-04-26T13:27:41.553Z,62.90
2019-04-26T13:30:12.062Z,63.30
2019-04-26T13:32:41.776Z,63.50
2019-04-26T13:35:13.064Z,62.90
2019-04-26T13:37:44.781Z,62.70
2019-04-26T13:40:14.256Z,62.40
2019-04-26T13:42:47.469Z,60.70
2019-04-26T13:45:32.067Z,61.80
2019-04-26T13:48:27.910Z,62.10
2019-04-26T13:51:05.620Z,62.80
2019-04-26T13:53:34.288Z,61.70
2019-04-26T13:56:03.917Z,62.50
2019-04-26T13:58:33.522Z,63.10
2019-04-26T14:01:04.810Z,63.00
2019-04-26T14:03:34.458Z,63.50
2019-04-26T14:06:04.056Z,63.80
2019-04-26T14:08:33.746Z,63.80
2019-04-26T14:11:03.271Z,63.70
2019-04-26T14:13:33.197Z,61.00
2019-04-26T14:16:03.314Z,62.60
2019-04-26T14:18:34.608Z,62.30
2019-04-26T14:21:04.567Z,62.90
2019-04-26T14:23:45.265Z,63.30
2019-04-26T14:26:15.723Z,63.20
2019-04-26T14:28:45.349Z,63.20
2019-04-26T14:31:16.374Z,62.50
2019-04-26T14:33:46.234Z,63.80
2019-04-26T14:36:18.135Z,63.50
2019-04-26T14:38:47.347Z,63.60
2019-04-26T14:41:21.923Z,61.50
2019-04-26T14:43:48.260Z,61.60
2019-04-26T14:46:18.055Z,62.40
2019-04-26T14:49:00.590Z,62.50
2019-04-26T14:51:18.886Z,63.20
2019-04-26T14:53:48.774Z,63.90
2019-04-26T14:56:18.551Z,63.50
2019-04-26T14:58:48.371Z,63.50
2019-04-26T15:01:32.259Z,62.40
2019-04-26T15:04:19.948Z,60.70
2019-04-26T15:06:51.937Z,59.90
2019-04-26T15:09:29.784Z,59.30
2019-04-26T15:11:58.606Z,59.20
2019-04-26T15:14:25.262Z,59.60
2019-04-26T15:16:58.752Z,59.20
2019-04-26T15:19:34.538Z,58.70
2019-04-26T15:22:04.093Z,56.80
2019-04-26T15:24:35.118Z,56.40
2019-04-26T15:27:04.919Z,55.80
2019-04-26T15:29:34.714Z,54.60
2019-04-26T15:32:05.301Z,54.80
2019-04-26T15:34:35.031Z,55.60
2019-04-26T15:37:04.792Z,54.60
2019-04-26T15:39:56.786Z,55.10
2019-04-26T15:42:43.853Z,54.80
2019-04-26T15:45:25.105Z,54.80
2019-04-26T15:48:12.108Z,53.70
2019-04-26T15:50:50.110Z,52.60
2019-04-26T15:53:15.488Z,53.50
2019-04-26T15:55:45.294Z,53.40
2019-04-26T15:58:14.853Z,53.00
2019-04-26T16:00:44.433Z,53.50
2019-04-26T16:03:14.022Z,52.70
2019-04-26T16:05:43.703Z,51.60
2019-04-26T16:08:13.299Z,50.10
2019-04-26T16:10:43.067Z,50.00
2019-04-26T16:13:20.673Z,48.80
2019-04-26T16:15:48.704Z,49.70
2019-04-26T16:18:17.562Z,49.50
2019-04-26T16:20:46.944Z,49.00
2019-04-26T16:23:16.550Z,48.90
2019-04-26T16:25:46.352Z,48.10
2019-04-26T16:28:30.989Z,47.50
2019-04-26T16:31:18.407Z,47.20
2019-04-26T16:33:48.801Z,46.80
2019-04-26T16:36:18.402Z,44.80
2019-04-26T16:38:48.615Z,43.90
2019-04-26T16:41:21.793Z,43.90
2019-04-26T16:43:53.136Z,43.80
2019-04-26T16:46:23.098Z,43.80
2019-04-26T16:48:56.706Z,44.20
2019-04-26T16:51:24.942Z,43.80
2019-04-26T16:54:06.692Z,44.30
2019-04-26T16:56:28.235Z,43.70
2019-04-26T16:58:57.716Z,43.60
2019-04-26T17:01:27.317Z,44.10
2019-04-26T17:03:57.036Z,43.60
2019-04-26T17:06:26.642Z,44.00
2019-04-26T17:09:01.175Z,44.90
2019-04-26T17:11:30.161Z,44.70
2019-04-26T17:14:04.307Z,45.50
2019-04-26T17:16:34.739Z,46.60
2019-04-26T17:19:02.245Z,46.40
2019-04-26T17:21:36.566Z,47.40
2019-04-26T17:24:34.195Z,48.10
2019-04-26T17:27:09.723Z,48.30
2019-04-26T17:29:37.613Z,48.00
2019-04-26T17:32:09.109Z,48.60
2019-04-26T17:34:40.501Z,49.80
2019-04-26T17:37:15.058Z,51.40
2019-04-26T17:39:41.799Z,52.60
2019-04-26T17:42:11.471Z,53.80
2019-04-26T17:44:41.334Z,53.90
2019-04-26T17:47:10.934Z,55.60
2019-04-26T17:49:43.482Z,55.80
2019-04-26T17:52:11.772Z,55.60
2019-04-26T17:54:46.802Z,56.20
2019-04-26T17:57:14.745Z,57.10
2019-04-26T17:59:47.624Z,57.30
2019-04-26T18:02:25.754Z,57.70
2019-04-26T18:04:58.068Z,59.10
2019-04-26T18:07:37.549Z,60.40
2019-04-26T18:09:50.685Z,60.40
2019-04-26T18:12:20.711Z,60.80
2019-04-26T18:14:50.304Z,61.10
2019-04-26T18:17:38.774Z,61.30
2019-04-26T18:20:33.238Z,61.30
2019-04-26T18:23:10.170Z,61.80
2019-04-26T18:25:37.249Z,61.50
2019-04-26T18:28:08.736Z,61.30
2019-04-26T18:30:40.342Z,61.30
2019-04-26T18:33:09.432Z,62.00
2019-04-26T18:35:41.758Z,61.60
2019-04-26T18:38:12.504Z,61.70
2019-04-26T18:40:58.449Z,62.00
2019-04-26T18:43:17.291Z,61.60
2019-04-26T18:45:46.211Z,61.80
2019-04-26T18:48:15.772Z,61.90
2019-04-26T18:50:46.026Z,61.80
2019-04-26T18:53:39.563Z,61.80
2019-04-26T18:56:08.077Z,61.60
2019-04-26T18:58:38.001Z,62.00
2019-04-26T19:01:09.556Z,63.00
2019-04-26T19:03:39.424Z,62.70
2019-04-26T19:06:09.265Z,63.60
2019-04-26T19:08:47.559Z,63.50
2019-04-26T19:11:11.858Z,63.60
2019-04-26T19:14:15.036Z,63.40
2019-04-26T19:17:02.352Z,63.30
2019-04-26T19:20:01.987Z,62.90
2019-04-26T19:22:34.511Z,63.60
2019-04-26T19:25:03.610Z,63.20
2019-04-26T19:27:33.313Z,64.10
2019-04-26T19:30:09.171Z,63.80
2019-04-26T19:32:35.498Z,64.50
2019-04-26T19:35:09.289Z,64.70
2019-04-26T19:37:38.063Z,65.20
2019-04-26T19:40:09.098Z,65.10
2019-04-26T19:42:39.432Z,65.30
2019-04-26T19:45:16.783Z,65.70
2019-04-26T19:47:48.434Z,65.30
2019-04-26T19:50:48.998Z,64.80
2019-04-26T19:53:21.124Z,64.60
2019-04-26T19:56:07.847Z,63.70
2019-04-26T19:58:37.693Z,63.80
2019-04-26T20:01:07.584Z,64.00
2019-04-26T20:03:37.483Z,64.10
2019-04-26T20:06:07.069Z,64.00
2019-04-26T20:08:43.974Z,64.40
2019-04-26T20:11:12.229Z,64.10
2019-04-26T20:13:42.381Z,64.50
2019-04-26T20:16:11.600Z,63.80
2019-04-26T20:18:42.067Z,64.20
2019-04-26T20:21:15.189Z,63.90
2019-04-26T20:23:47.254Z,63.80
2019-04-26T20:26:14.703Z,64.40
2019-04-26T20:28:44.298Z,64.60
2019-04-26T20:31:37.552Z,64.50
2019-04-26T20:34:10.925Z,64.50
2019-04-26T20:36:41.635Z,64.80
2019-04-26T20:39:10.301Z,64.30
2019-04-26T20:41:40.140Z,64.50
2019-04-26T20:44:10.263Z,64.80
2019-04-26T20:46:40.270Z,64.60
2019-04-26T20:49:11.322Z,64.00
2019-04-26T20:51:46.068Z,64.20
2019-04-26T20:54:16.372Z,63.80
2019-04-26T20:56:46.261Z,64.10
2019-04-26T20:59:16.639Z,63.50
2019-04-26T21:01:46.673Z,63.90
2019-04-26T21:04:34.176Z,63.60
2019-04-26T21:06:47.606Z,63.40
2019-04-26T21:09:17.679Z,63.10
2019-04-26T21:11:47.301Z,63.30
2019-04-26T21:14:16.914Z,63.60
2019-04-26T21:16:49.478Z,63.40
2019-04-26T21:19:20.283Z,62.70
2019-04-26T21:21:50.424Z,62.60
2019-04-26T21:24:23.610Z,62.70
2019-04-26T21:27:10.886Z,62.30
2019-04-26T21:29:59.134Z,62.50
2019-04-26T21:32:56.041Z,62.80
2019-04-26T21:35:28.383Z,63.00
2019-04-26T21:38:04.630Z,63.20
2019-04-26T21:40:47.697Z,63.10
2019-04-26T21:43:17.271Z,61.90
2019-04-26T21:45:46.882Z,61.50
2019-04-26T21:48:18.294Z,61.90
2019-04-26T21:50:47.983Z,61.40
2019-04-26T21:53:17.561Z,61.30
2019-04-26T21:55:47.177Z,61.10
2019-04-26T21:58:16.768Z,61.60
2019-04-26T22:01:25.115Z,61.70
2019-04-26T22:03:58.287Z,61.30
2019-04-26T22:06:28.678Z,61.40
2019-04-26T22:09:08.943Z,61.20
2019-04-26T22:11:38.790Z,60.90
2019-04-26T22:14:20.255Z,60.70
2019-04-26T22:16:57.632Z,60.60
2019-04-26T22:19:50.206Z,60.40
2019-04-26T22:22:24.729Z,60.00
2019-04-26T22:24:55.507Z,59.70
2019-04-26T22:27:25.520Z,60.20
2019-04-26T22:29:55.227Z,59.50
2019-04-26T22:32:25.049Z,59.80
2019-04-26T22:34:54.647Z,60.30
2019-04-26T22:37:29.941Z,60.30
2019-04-26T22:39:55.790Z,60.30
2019-04-26T22:42:26.345Z,60.20
2019-04-26T22:45:17.872Z,60.40
2019-04-26T22:47:55.815Z,59.90
2019-04-26T22:50:25.467Z,59.20
2019-04-26T22:52:55.073Z,58.30
2019-04-26T22:55:27.413Z,58.90
2019-04-26T22:57:55.909Z,58.50
2019-04-26T23:00:29.496Z,57.90
2019-04-26T23:03:03.721Z,58.00
2019-04-26T23:05:34.726Z,58.50
2019-04-26T23:08:03.359Z,59.20
2019-04-26T23:10:39.759Z,58.10
2019-04-26T23:13:15.866Z,58.00
2019-04-26T23:16:08.391Z,57.20
2019-04-26T23:18:53.734Z,56.40
2019-04-26T23:21:26.846Z,55.70
2019-04-26T23:23:56.425Z,53.70
2019-04-26T23:26:26.021Z,53.90
2019-04-26T23:28:55.592Z,53.60
2019-04-26T23:31:25.234Z,53.20
2019-04-26T23:33:54.778Z,52.80
2019-04-26T23:36:24.352Z,53.40
2019-04-26T23:38:53.934Z,52.30
2019-04-26T23:41:23.771Z,52.30
2019-04-26T23:43:56.745Z,53.10
2019-04-26T23:46:25.918Z,53.70
2019-04-26T23:48:55.775Z,53.80
2019-04-26T23:51:26.268Z,53.50
2019-04-26T23:53:57.829Z,53.40
2019-04-26T23:56:27.203Z,53.50
2019-04-26T23:58:56.740Z,54.10
